Date,TemperatureHighF,TemperatureAvgF,TemperatureLowF,DewpointHighF,DewpointAvgF,DewpointLowF,HumidityHigh,HumidityAvg,HumidityLow,PressureMaxIn,PressureMinIn,WindSpeedMaxMPH,WindSpeedAvgMPH,GustSpeedMaxMPH,PrecipitationSumIn
2013-1-1,47.3,40.6,32.4,40.5,29.8,23.0,85,66,49,30.33,30.02,18,3,18,0.00
2013-1-2,47.7,36.5,29.7,27.3,25.3,23.0,80,65,43,30.40,30.26,9,0,10,0.00
2013-1-3,43.7,35.8,25.9,31.6,25.0,20.1,87,66,48,30.53,30.38,14,1,16,0.03
2013-1-4,39.4,35.8,32.7,35.8,33.2,30.6,95,91,82,30.55,30.40,8,0,8,0.29
2013-1-5,54.9,43.1,36.3,36.9,34.8,32.0,93,75,46,30.41,30.24,24,3,24,0.00
2013-1-6,58.3,42.5,32.5,32.4,26.5,22.3,87,57,25,30.48,30.33,12,1,12,0.01
2013-1-7,53.1,40.7,29.7,32.5,28.9,24.6,83,64,41,30.35,30.09,14,1,14,0.00
2013-1-8,50.4,45.9,40.5,48.7,42.5,32.4,95,88,71,30.09,29.93,13,1,14,0.27
2013-1-9,48.7,47.2,45.7,47.7,45.5,43.7,98,94,91,30.15,29.89,26,4,28,0.69
2013-1-10,60.1,49.6,44.2,47.5,44.1,39.7,100,82,59,30.03,29.92,27,4,27,0.03
2013-1-11,72.5,57.3,43.5,53.1,47.1,39.2,88,70,42,29.94,29.72,24,1,24,0.03
2013-1-12,57.9,49.2,34.2,51.8,35.7,21.2,86,61,42,30.03,29.74,23,4,23,0.00
2013-1-13,40.8,32.7,26.2,22.8,20.9,18.9,78,62,46,30.30,30.03,17,4,18,0.00
2013-1-14,45.0,32.9,23.4,23.4,19.2,14.9,74,58,38,30.36,30.21,8,1,15,0.00
2013-1-15,36.9,32.5,26.2,24.1,19.5,15.8,73,59,43,30.35,30.20,18,3,18,0.00
2013-1-16,53.8,36.4,19.9,29.3,22.4,16.0,88,61,27,30.40,30.23,23,3,23,0.00
2013-1-17,60.4,45.3,31.5,33.3,29.8,26.6,84,58,32,30.56,30.36,12,1,13,0.00
2013-1-18,65.8,46.9,27.9,35.2,30.6,24.8,90,58,28,30.53,30.25,18,1,18,0.00
2013-1-19,70.0,50.9,34.2,37.0,32.6,28.9,82,54,24,30.26,30.10,20,2,22,0.00
2013-1-20,69.8,49.3,33.3,37.0,31.1,25.3,84,54,19,30.26,30.08,12,0,13,0.00
2013-1-21,54.7,43.7,35.6,33.3,30.0,27.0,79,60,39,30.31,30.15,16,2,16,0.00
2013-1-22,70.2,49.3,33.8,50.9,37.0,26.1,88,64,41,30.32,30.16,19,1,20,0.00
2013-1-23,77.7,57.4,39.7,56.3,46.5,37.8,97,71,31,30.28,30.11,18,2,18,0.00
2013-1-24,82.9,63.4,46.6,57.4,47.9,42.6,94,63,26,30.19,30.00,19,2,22,0.00
2013-1-25,64.8,56.2,48.4,54.0,44.0,35.4,86,65,46,30.17,30.00,21,3,23,0.00
2013-1-26,64.6,53.5,41.2,55.4,44.7,36.3,91,73,53,30.18,30.01,15,1,15,0.00
2013-1-27,78.1,64.0,54.3,57.4,54.4,51.8,93,73,44,30.01,29.85,18,1,19,0.00
2013-1-28,79.3,67.6,55.9,62.6,58.6,52.3,96,75,50,29.92,29.73,24,2,24,0.00
2013-1-29,69.6,62.3,50.7,63.0,42.0,16.5,88,54,23,29.81,29.56,43,11,44,0.05
2013-1-30,53.2,44.8,36.1,27.7,17.6,9.3,62,36,17,30.20,29.80,30,8,30,0.05
2013-1-31,67.6,49.3,31.1,29.5,20.6,14.5,57,35,17,30.27,30.13,30,4,30,0.00
2013-2-1,70.0,53.4,37.8,38.5,31.2,21.7,69,45,23,30.33,30.09,21,1,21,0.00
2013-2-2,65.8,51.1,38.5,45.5,33.4,27.1,90,55,25,30.34,30.11,21,2,21,0.00
2013-2-3,69.3,52.4,34.2,47.1,35.8,26.6,76,56,27,30.35,29.93,21,2,23,0.00
2013-2-4,75.9,62.1,49.6,50.2,41.6,31.5,79,51,23,29.93,29.75,24,4,24,0.00
2013-2-5,76.3,57.7,40.1,47.5,35.6,30.2,74,48,20,30.01,29.88,9,0,9,0.00
2013-2-6,79.2,63.8,49.6,55.6,49.4,44.1,89,63,31,29.94,29.73,16,1,16,0.00
2013-2-7,71.8,61.1,49.5,57.2,46.2,37.0,92,63,30,30.15,29.81,24,4,24,0.00
2013-2-8,64.9,52.8,37.8,40.1,27.4,20.8,74,42,19,30.27,30.03,14,1,14,0.00
2013-2-9,70.3,59.3,50.4,57.9,45.5,24.1,79,62,31,30.07,29.64,29,5,30,0.00
2013-2-10,66.2,56.6,45.5,58.1,25.4,11.8,90,34,13,29.97,29.68,23,4,24,0.50
2013-2-11,62.2,52.3,44.8,43.0,37.3,24.3,77,58,38,30.07,29.95,16,1,21,0.50
2013-2-12,64.0,49.9,37.6,48.4,38.4,25.5,98,69,24,30.13,29.85,34,7,34,0.01
2013-2-13,62.2,45.3,31.5,34.2,28.0,20.5,88,57,23,30.19,30.02,14,1,14,0.00
2013-2-14,69.6,50.4,30.9,33.6,27.3,19.8,83,47,16,30.11,29.95,18,1,18,0.00
2013-2-15,51.8,45.6,36.3,36.0,27.7,14.5,78,52,25,30.43,30.06,23,4,28,0.00
2013-2-16,66.0,45.6,27.0,26.6,22.6,18.1,74,44,19,30.49,30.17,21,2,21,0.00
2013-2-17,72.1,54.4,34.3,46.0,30.4,19.9,75,45,14,30.17,29.83,22,3,26,0.00
2013-2-18,71.2,60.2,46.2,51.4,35.5,15.8,82,47,13,30.10,29.77,35,6,35,0.00
2013-2-19,60.4,51.2,40.3,30.2,27.2,23.2,62,41,25,30.25,30.06,19,3,23,0.00
2013-2-20,54.1,48.8,46.6,46.2,41.7,29.5,95,78,39,30.08,29.60,20,3,22,0.05
2013-2-21,64.8,53.9,44.1,52.3,35.1,21.2,97,58,20,29.89,29.52,41,8,41,0.06
2013-2-22,59.4,42.1,29.5,36.7,25.9,19.6,79,55,29,30.15,29.88,19,2,21,0.06
2013-2-23,67.1,47.2,29.1,32.0,23.0,12.0,84,47,12,30.13,29.85,18,2,18,0.00
2013-2-24,78.3,58.6,40.3,52.9,40.2,22.3,79,54,22,29.85,29.50,28,3,28,0.00
2013-2-25,61.2,43.8,39.6,53.1,32.2,26.6,75,64,53,29.93,29.50,40,13,40,0.03
2013-2-26,64.0,46.3,31.5,28.0,26.3,24.4,76,49,23,30.00,29.79,13,2,19,0.00
2013-2-27,55.9,45.3,35.2,32.4,24.0,12.9,75,46,19,30.30,29.81,25,5,26,0.00
2013-2-28,59.5,44.3,29.1,28.9,21.7,14.7,79,46,18,30.39,30.23,16,1,17,0.00
2013-3-1,63.0,46.7,29.7,25.5,19.8,10.8,67,38,14,30.35,30.20,29,3,30,0.00
2013-3-2,66.6,48.7,32.4,30.6,26.7,22.6,69,45,24,30.47,30.22,17,1,17,0.00
2013-3-3,78.3,59.1,35.4,30.9,25.1,19.2,69,34,11,30.22,29.75,29,4,31,0.00
2013-3-4,85.3,68.8,54.7,41.5,23.4,9.9,43,20,6,29.80,29.61,32,7,37,0.00
2013-3-5,62.4,49.2,37.8,41.0,19.5,7.9,59,35,14,30.40,29.80,42,8,43,0.00
2013-3-6,64.9,46.9,29.3,18.7,14.5,8.2,59,31,12,30.46,30.17,17,2,18,0.00
2013-3-7,74.7,57.5,42.8,47.3,32.6,15.6,68,40,29,30.17,29.99,19,3,23,0.00
2013-3-8,70.9,63.0,55.2,60.3,56.6,46.8,94,80,64,30.03,29.83,20,5,25,0.00
2013-3-9,79.9,69.0,63.1,59.5,50.3,24.1,83,56,22,29.84,29.57,35,5,36,0.05
2013-3-10,63.3,53.2,45.0,30.2,22.7,11.7,50,32,17,30.13,29.74,31,10,31,0.05
2013-3-11,71.6,50.3,28.8,23.9,18.2,13.1,60,31,14,30.20,29.97,18,2,19,0.00
2013-3-12,70.3,56.1,38.1,30.6,26.4,19.4,66,35,15,30.31,29.99,24,5,25,0.00
2013-3-13,76.8,57.4,37.8,36.3,30.3,24.8,62,38,21,30.42,30.20,21,1,21,0.00
2013-3-14,80.8,63.3,43.5,47.1,38.7,33.8,72,44,20,30.29,30.10,19,1,21,0.00
2013-3-15,85.5,66.9,47.8,51.4,42.3,37.8,72,45,19,30.14,29.84,19,2,22,0.00
2013-3-16,91.9,72.8,54.7,49.8,41.8,31.5,72,38,12,29.86,29.55,25,3,25,0.00
2013-3-17,79.5,64.0,47.5,45.7,42.4,36.9,68,47,28,29.79,29.60,24,2,26,0.00
2013-3-18,71.2,61.7,49.5,43.5,40.9,35.8,68,47,34,29.94,29.66,30,2,30,0.00
2013-3-19,81.3,61.3,45.1,49.1,43.6,38.5,82,56,25,30.08,29.79,20,3,22,0.00
2013-3-20,70.5,59.6,44.4,45.9,32.4,27.0,62,38,21,30.28,29.96,20,2,20,0.00
2013-3-21,84.9,66.7,50.5,54.3,45.2,32.2,63,47,28,29.97,29.44,27,5,27,0.00
2013-3-22,69.4,58.0,48.0,56.3,46.4,39.2,81,66,52,29.77,29.53,22,4,22,0.00
2013-3-23,82.6,60.2,47.3,49.5,39.7,14.2,88,57,9,29.85,29.54,41,4,41,0.00
2013-3-24,54.0,44.0,33.4,44.4,21.5,13.6,76,43,22,30.23,29.84,30,8,31,0.00
2013-3-25,56.3,43.8,30.4,17.6,13.9,7.2,54,32,17,30.42,30.20,15,1,15,0.00
2013-3-26,66.0,49.0,29.3,19.6,16.5,13.3,54,30,14,30.48,30.20,20,2,21,0.00
2013-3-27,74.8,58.0,41.7,45.7,34.4,16.9,59,42,29,30.23,30.00,25,4,25,0.00
2013-3-28,80.4,63.7,48.2,54.7,49.2,42.4,86,62,39,30.10,29.96,20,3,21,0.00
2013-3-29,79.5,67.5,58.3,57.6,55.7,53.6,86,68,43,30.07,29.93,19,2,19,0.00
2013-3-30,87.6,71.1,55.2,60.8,54.7,41.4,92,61,22,30.04,29.76,25,2,26,0.00
2013-3-31,80.2,70.7,64.4,57.7,53.4,46.6,76,56,35,29.94,29.80,24,2,24,0.00
2013-4-1,86.2,70.8,53.4,57.4,51.2,46.0,82,53,29,30.02,29.77,19,2,19,0.00
2013-4-2,75.0,57.9,43.0,60.3,50.8,40.8,94,78,54,29.99,29.80,28,6,35,0.54
2013-4-3,46.0,43.6,41.4,41.2,39.5,37.8,91,85,79,30.23,29.96,23,8,24,0.04
2013-4-4,68.2,50.5,40.5,45.7,39.7,34.5,83,68,37,30.29,30.10,19,4,19,0.00
2013-4-5,77.4,57.9,39.4,49.1,43.6,36.7,92,63,27,30.23,29.94,18,2,20,0.00
2013-4-6,85.8,68.7,52.0,57.0,48.7,43.9,76,52,26,29.96,29.69,24,3,28,0.00
2013-4-7,91.9,73.3,57.2,61.2,54.8,43.3,91,59,19,29.79,29.56,21,2,21,0.00
2013-4-8,87.6,72.6,62.4,63.1,60.7,55.8,90,69,35,29.65,29.45,23,4,27,0.00
2013-4-9,94.6,75.7,47.7,63.1,54.0,32.5,82,54,15,29.69,29.40,32,6,34,0.00
2013-4-10,54.7,44.2,35.1,37.4,34.6,29.3,92,70,51,30.03,29.69,28,8,29,0.07
2013-4-11,70.2,54.3,39.2,37.9,33.8,28.4,86,50,25,30.04,29.76,12,0,13,0.07
2013-4-12,83.7,64.9,45.3,44.4,40.3,36.5,76,45,20,29.94,29.73,21,2,21,0.00
2013-4-13,82.2,69.4,53.2,48.2,40.0,33.6,60,37,18,29.87,29.65,23,3,24,0.00
2013-4-14,93.4,74.9,54.7,57.0,40.8,22.8,82,41,8,29.71,29.45,34,6,34,0.00
2013-4-15,95.2,78.6,58.3,61.7,43.5,29.8,59,32,10,29.64,29.54,21,2,23,0.00
2013-4-16,92.5,78.9,65.5,65.1,61.7,52.7,84,58,37,29.75,29.61,25,3,25,0.00
2013-4-17,92.1,80.0,71.8,69.3,66.4,63.9,83,65,40,29.72,29.44,32,6,33,0.00
2013-4-18,74.7,54.3,44.1,68.0,37.5,26.1,90,56,29,30.16,29.50,33,10,35,0.20
2013-4-19,67.6,52.8,36.3,33.4,25.7,18.1,82,40,16,30.35,30.12,17,1,17,0.20
2013-4-20,77.4,61.2,44.1,34.3,30.5,27.5,57,34,18,30.14,29.84,28,4,28,0.00
2013-4-21,81.0,65.7,50.4,51.4,46.0,30.4,83,52,30,30.06,29.91,19,3,19,0.00
2013-4-22,88.0,72.1,58.5,57.6,54.5,51.3,86,57,31,29.98,29.70,23,4,24,0.00
2013-4-23,71.2,53.2,43.0,57.4,41.0,31.5,76,63,53,30.23,29.69,26,6,26,0.00
2013-4-24,64.9,50.0,36.1,33.8,28.3,24.8,68,46,24,30.38,30.18,26,4,26,0.00
2013-4-25,68.5,60.7,54.0,47.7,38.7,32.7,50,44,35,30.31,30.06,22,3,22,0.00
2013-4-26,89.2,71.6,60.1,59.9,53.6,39.4,77,56,26,30.09,29.86,23,3,23,0.00
2013-4-27,83.7,69.9,58.5,59.2,50.5,37.6,89,55,21,30.07,29.92,17,1,17,0.00
2013-4-28,91.4,72.1,52.7,60.8,48.6,38.1,86,50,16,29.99,29.75,14,1,14,0.00
2013-4-29,90.3,74.5,55.8,59.2,50.3,41.4,78,46,20,29.85,29.65,23,2,25,0.00
2013-4-30,94.3,76.4,59.0,61.9,56.8,50.7,88,56,24,29.76,29.55,21,3,23,0.00
2013-5-1,93.9,78.5,66.0,64.6,59.9,45.5,84,56,25,29.92,29.61,35,2,35,0.00
2013-5-2,66.0,47.5,41.7,55.8,36.2,30.0,79,66,48,30.45,29.92,33,13,34,0.00
2013-5-3,69.1,53.9,36.3,30.0,22.7,15.1,66,35,13,30.45,30.03,18,3,19,0.00
2013-5-4,79.9,62.8,39.7,28.8,23.9,19.6,59,26,11,30.05,29.88,17,2,18,0.00
2013-5-5,76.5,61.8,44.4,43.0,36.0,26.4,59,40,25,30.17,29.99,17,2,17,0.00
2013-5-6,68.5,59.6,51.4,55.6,47.1,41.7,87,65,44,30.10,29.99,10,0,10,0.15
2013-5-7,87.6,69.2,49.6,54.7,49.1,45.5,88,55,26,30.05,29.82,21,2,21,0.00
2013-5-8,79.3,71.7,63.7,64.0,59.2,48.9,81,65,44,29.89,29.75,22,3,25,0.00
2013-5-9,76.5,67.8,61.9,64.2,61.2,57.4,94,80,55,29.91,29.74,46,1,46,0.73
2013-5-10,78.6,65.5,59.5,60.1,58.1,54.3,93,79,48,30.08,29.83,35,2,35,0.35
2013-5-11,79.7,67.5,54.9,57.4,50.6,39.7,94,61,25,30.16,30.05,22,2,25,0.01
2013-5-12,79.7,68.0,55.8,52.5,49.8,44.1,76,54,29,30.25,30.09,13,1,13,0.00
2013-5-13,88.3,72.0,53.2,52.3,45.9,36.0,83,46,16,30.22,30.04,14,2,17,0.00
2013-5-14,88.3,73.8,59.7,61.3,55.7,49.1,90,55,35,30.11,29.86,34,2,34,0.13
2013-5-15,91.9,73.2,61.3,66.7,60.3,50.5,95,70,26,30.00,29.63,28,3,30,0.29
2013-5-16,97.3,81.4,66.4,71.2,64.3,58.1,91,60,31,29.71,29.59,15,1,15,0.00
2013-5-17,106.3,87.5,69.8,70.0,60.0,32.4,89,50,9,29.72,29.60,17,2,21,0.00
2013-5-18,98.2,86.2,73.6,70.7,67.3,63.1,86,56,34,29.73,29.59,22,3,22,0.00
2013-5-19,100.6,85.9,72.3,67.1,53.4,26.8,78,43,8,29.69,29.54,23,3,25,0.00
2013-5-20,100.8,85.8,72.1,70.2,58.9,26.4,85,50,8,29.68,29.50,23,4,23,0.00
2013-5-21,87.4,76.2,66.9,70.0,59.1,46.9,82,58,33,29.82,29.58,35,4,36,0.00
2013-5-22,95.7,77.3,57.0,55.0,49.8,45.0,82,43,18,29.89,29.68,20,2,21,0.00
2013-5-23,94.8,81.0,68.5,69.4,65.8,55.4,87,62,38,29.99,29.72,29,4,30,0.06
2013-5-24,80.6,72.8,65.7,66.6,62.9,57.9,92,72,55,30.05,29.90,26,4,26,0.33
2013-5-25,85.5,75.4,67.1,68.2,65.5,62.6,92,73,50,30.06,29.88,24,4,24,0.33
2013-5-26,90.0,79.3,70.7,68.5,65.5,60.4,88,65,42,29.99,29.81,22,3,23,0.00
2013-5-27,88.2,79.6,71.1,68.9,67.2,64.0,85,67,51,29.87,29.68,28,4,28,0.00
2013-5-28,84.7,77.1,70.5,70.0,66.5,63.5,82,70,52,29.77,29.53,33,6,35,0.00
2013-5-29,89.1,80.0,72.5,69.3,66.8,64.2,80,65,45,29.66,29.51,26,6,30,0.00
2013-5-30,97.2,84.3,74.1,70.0,66.6,57.9,83,59,28,29.69,29.56,21,4,22,0.00
2013-5-31,99.5,85.7,72.0,71.8,69.3,65.1,89,61,34,29.72,29.55,21,3,21,0.00
2013-6-1,90.0,83.2,75.4,71.6,66.7,54.7,84,59,42,29.91,29.59,20,3,23,0.00
2013-6-2,89.1,78.6,66.0,59.5,55.9,53.1,72,47,30,30.03,29.82,15,2,15,0.00
2013-6-3,95.7,81.7,67.3,67.6,62.3,56.1,72,53,37,29.92,29.69,23,2,23,0.00
2013-6-4,102.2,87.2,70.2,68.2,64.6,58.3,78,50,29,29.75,29.58,22,4,26,0.00
2013-6-5,100.0,85.2,70.3,66.7,61.8,48.2,75,48,26,29.77,29.60,37,4,37,0.00
2013-6-6,84.7,76.3,66.9,63.9,61.2,56.8,81,61,45,29.90,29.68,32,4,34,0.00
2013-6-7,83.7,74.1,66.4,65.7,60.0,51.8,91,64,36,29.99,29.81,18,1,18,0.13
2013-6-8,90.7,77.2,62.2,65.3,59.0,54.5,80,55,38,29.89,29.67,21,2,23,0.00
2013-6-9,93.9,80.3,65.3,67.5,63.6,56.5,95,61,30,29.93,29.73,19,2,19,0.93
2013-6-10,97.3,82.6,67.6,70.2,61.8,46.2,91,55,19,29.94,29.80,18,2,18,0.93
2013-6-11,95.9,83.5,69.8,70.0,63.7,54.1,81,54,32,29.94,29.81,21,2,21,0.00
2013-6-12,94.5,82.8,69.6,68.4,65.0,60.3,84,57,38,29.96,29.83,18,2,19,0.00
2013-6-13,96.1,82.3,72.3,71.4,67.3,62.6,86,63,35,29.98,29.81,32,2,33,0.08
2013-6-14,83.5,75.2,71.8,70.7,67.5,64.9,90,78,59,29.95,29.87,17,1,17,0.00
2013-6-17,98.2,89.3,71.8,71.8,67.4,57.7,86,51,36,29.91,29.72,25,3,27,0.23
2013-6-18,92.8,79.1,67.6,68.4,65.4,63.1,93,66,40,29.99,29.82,37,1,37,0.23
2013-6-19,97.0,82.9,73.0,71.2,67.4,63.0,87,62,35,29.87,29.78,28,2,30,0.18
2013-6-20,94.1,83.7,73.8,69.1,66.5,64.2,82,58,40,29.92,29.79,27,3,27,0.00
2013-6-21,94.8,84.7,74.8,70.3,65.4,60.4,83,55,34,29.95,29.82,22,3,24,0.00
2013-6-22,95.7,84.8,73.9,68.9,63.2,57.0,79,51,28,29.91,29.75,29,4,29,0.00
2013-6-23,94.8,84.9,73.0,66.4,63.5,59.5,76,51,31,29.86,29.73,25,5,25,0.00
2013-6-24,95.4,83.6,73.8,69.4,65.3,61.5,76,56,34,29.91,29.75,24,5,26,0.00
2013-6-25,100.4,87.6,76.3,70.7,66.8,61.3,78,53,31,29.86,29.70,20,4,20,0.00
2013-6-26,101.8,88.6,75.0,71.6,67.1,62.1,77,51,30,29.82,29.73,21,3,21,0.00
2013-6-27,104.2,89.5,74.8,70.0,61.7,51.1,79,44,18,29.91,29.78,13,2,14,0.00
2013-6-28,104.9,89.7,72.0,66.9,58.2,52.9,59,37,20,29.93,29.73,12,2,14,0.00
2013-6-29,106.2,92.6,78.3,68.2,60.8,51.6,66,38,18,29.83,29.66,14,1,15,0.00
2013-6-30,93.2,82.9,69.6,68.9,65.4,57.7,91,58,38,29.90,29.74,24,2,24,0.31
2013-7-1,86.7,77.8,72.3,69.4,55.3,46.2,75,47,28,30.04,29.85,18,2,18,0.00
2013-7-2,88.5,76.7,61.9,53.4,47.8,42.1,74,40,20,30.10,29.93,18,1,20,0.00
2013-7-3,92.7,78.5,62.1,53.1,46.1,40.1,67,35,17,30.02,29.84,13,1,16,0.00
2013-7-4,94.3,80.8,68.7,59.4,49.9,45.5,49,36,20,29.93,29.78,18,2,18,0.00
2013-7-5,98.8,84.9,67.8,57.7,52.1,47.1,62,35,18,29.91,29.72,21,2,25,0.00
2013-7-6,98.2,84.7,71.2,61.5,55.4,48.9,68,40,21,29.86,29.71,18,2,22,0.00
2013-7-7,98.1,85.9,71.8,66.2,59.2,54.7,68,43,26,29.90,29.78,19,2,19,0.00
2013-7-8,97.3,84.9,75.2,70.7,66.6,58.1,77,56,35,29.99,29.86,20,3,28,0.00
2013-7-9,98.8,86.1,73.6,70.0,64.1,57.7,82,51,30,30.04,29.88,19,2,19,0.00
2013-7-10,102.2,88.6,73.9,70.3,63.5,57.4,75,46,25,30.01,29.80,16,2,16,0.00
2013-7-11,100.2,89.0,75.4,68.0,62.5,57.6,68,43,26,29.90,29.74,16,2,16,0.00
2013-7-12,101.5,89.6,75.9,67.3,59.9,52.0,62,39,20,29.87,29.75,17,2,20,0.00
2013-7-13,102.7,89.7,74.8,64.2,55.7,48.2,57,34,17,29.91,29.75,11,1,14,0.00
2013-7-14,100.6,84.8,68.4,65.1,58.8,53.6,89,44,23,29.85,29.71,25,4,25,0.02
2013-7-15,69.3,66.5,63.1,67.3,64.5,61.2,96,93,87,30.01,29.82,16,2,16,1.99
2013-7-16,79.0,71.0,67.1,72.9,69.0,65.7,97,94,77,30.12,29.98,18,1,18,1.48
2013-7-17,82.6,73.9,69.6,72.9,69.4,67.5,95,86,62,30.17,30.06,21,1,21,0.09
2013-7-18,85.3,76.0,69.6,71.1,69.1,67.3,95,80,57,30.14,29.97,19,0,20,0.09
2013-7-19,92.1,81.3,70.0,72.3,68.1,61.7,95,68,37,30.02,29.84,11,0,11,0.02
2013-7-20,94.8,82.7,71.1,70.7,66.9,61.2,87,61,34,29.91,29.75,11,1,12,0.00
2013-7-21,96.1,83.5,73.0,71.8,69.0,65.1,85,64,38,29.87,29.75,20,1,20,0.00
2013-7-22,95.4,84.2,73.6,73.9,70.7,69.1,89,66,45,29.89,29.76,16,1,18,0.00
2013-7-23,97.2,86.1,76.5,74.7,70.9,64.4,86,62,44,29.87,29.74,14,1,17,0.00
2013-7-24,98.1,86.5,73.0,72.7,67.2,61.2,76,54,35,29.90,29.78,11,1,17,0.00
2013-7-25,98.4,86.2,75.9,72.5,69.5,66.9,78,59,40,29.95,29.84,15,1,16,0.00
2013-7-26,97.5,84.4,77.5,71.4,68.0,64.9,75,59,40,29.94,29.81,23,2,23,0.00
2013-7-27,91.0,80.6,71.4,68.4,62.7,51.8,83,58,28,29.98,29.83,18,1,18,0.00
2013-7-28,95.0,81.9,66.9,69.1,65.3,60.1,87,60,37,29.90,29.74,13,1,15,0.00
2013-7-29,98.4,87.0,78.3,73.8,67.9,57.9,80,55,32,29.87,29.78,17,2,17,0.00
2013-7-30,100.0,87.8,78.1,71.4,67.6,58.3,76,53,35,29.97,29.83,15,1,15,0.00
2013-7-31,102.4,88.4,75.2,70.9,66.9,61.9,78,51,32,30.00,29.84,15,1,15,0.00
2013-8-1,102.6,88.6,75.0,69.8,63.5,58.5,68,45,27,29.96,29.81,14,2,18,0.00
2013-8-2,103.5,89.7,75.9,66.6,62.9,56.8,72,44,24,29.88,29.74,17,2,17,0.00
2013-8-3,100.6,88.4,74.3,65.8,62.2,59.0,69,44,26,29.89,29.80,17,2,19,0.00
2013-8-4,99.3,88.2,75.9,70.3,65.3,60.1,77,49,30,29.96,29.80,14,1,14,0.00
2013-8-5,101.5,89.4,77.7,68.4,63.3,58.6,67,44,27,29.92,29.73,14,2,17,0.00
2013-8-6,105.3,90.8,75.4,69.4,63.8,55.9,78,44,21,29.81,29.65,22,2,22,0.00
2013-8-7,106.5,89.8,75.4,71.4,64.8,60.1,87,47,23,29.81,29.62,27,2,41,0.22
2013-8-8,103.5,85.1,73.6,72.9,69.0,58.3,91,65,24,29.81,29.64,28,2,30,0.22
2013-8-9,101.7,87.1,73.2,72.5,67.6,58.6,89,57,26,29.91,29.74,13,1,14,0.00
2013-8-10,96.1,85.4,75.4,72.1,68.5,63.7,82,59,37,30.02,29.88,16,2,16,0.00
2013-8-11,99.1,87.3,73.6,68.9,66.1,63.3,80,52,32,30.00,29.86,13,1,14,0.00
2013-8-12,97.9,86.0,72.9,69.3,65.7,61.9,82,53,33,29.98,29.83,18,1,18,0.00
2013-8-13,100.0,88.1,75.7,69.6,63.6,58.8,72,47,27,29.95,29.80,15,1,15,0.00
2013-8-14,87.6,81.5,77.0,70.0,67.1,60.8,75,62,43,29.98,29.84,17,2,17,0.00
2013-8-15,94.5,80.8,71.8,70.3,67.5,63.3,86,66,41,29.96,29.86,21,2,25,0.00
2013-8-16,93.7,77.4,65.3,67.8,63.3,56.1,94,67,31,30.17,29.89,23,2,27,0.20
2013-8-17,93.4,80.5,67.8,67.8,62.4,56.8,84,57,31,30.03,29.87,12,1,12,0.00
2013-8-18,93.9,81.9,67.6,62.1,59.3,56.5,79,49,31,30.00,29.88,19,2,21,0.00
2013-8-19,96.1,83.4,69.6,63.1,60.4,57.0,70,48,31,29.98,29.82,19,2,19,0.00
2013-8-20,95.9,84.0,72.0,65.3,60.1,55.0,69,47,29,29.95,29.85,18,1,19,0.00
2013-8-21,95.4,81.9,68.9,68.4,62.5,55.4,81,54,32,30.01,29.88,18,1,18,0.00
2013-8-22,96.1,85.7,71.2,68.4,64.5,60.1,83,52,31,30.01,29.83,15,1,17,0.00
2013-8-23,97.7,83.0,73.8,69.8,65.8,60.8,73,58,32,29.96,29.83,24,1,24,0.02
2013-8-24,98.1,84.5,71.1,69.3,65.4,59.7,85,57,30,30.01,29.87,17,1,17,0.02
2013-8-25,95.9,86.0,73.9,69.8,64.6,59.5,72,50,32,30.04,29.92,17,1,19,0.00
2013-8-26,91.0,82.4,72.5,68.7,65.2,63.0,79,57,41,30.07,29.95,18,1,18,0.00
2013-8-27,86.5,78.3,71.6,71.2,67.9,64.4,87,71,55,30.03,29.93,18,1,21,0.01
2013-8-28,95.5,82.0,69.4,70.3,65.1,57.7,93,62,29,30.05,29.93,18,1,20,0.01
2013-8-29,97.2,84.1,70.2,68.0,62.4,59.2,74,51,32,30.04,29.90,19,1,19,0.00
2013-8-30,100.2,85.5,68.4,64.8,60.7,58.8,74,46,27,29.98,29.81,14,1,14,0.00
2013-8-31,102.4,87.1,70.5,62.8,60.6,57.7,69,44,24,29.87,29.72,24,1,24,0.00
2013-9-1,103.3,88.3,72.9,64.2,61.6,58.1,68,43,25,29.83,29.70,13,1,13,0.00
2013-9-2,94.5,83.1,73.9,67.3,63.9,58.5,76,54,31,29.96,29.78,26,2,26,0.00
2013-9-3,98.2,84.3,70.2,68.4,63.6,56.8,79,54,27,29.97,29.83,15,1,16,0.00
2013-9-4,99.1,85.6,71.2,64.2,55.7,41.5,60,39,17,29.99,29.87,14,1,16,0.00
2013-9-5,97.7,84.5,72.3,67.1,64.1,60.3,68,52,32,30.03,29.91,21,1,21,0.00
2013-9-6,97.5,85.5,73.2,68.9,63.7,55.6,76,51,28,30.03,29.87,15,1,15,0.00
2013-9-7,96.6,84.1,71.8,68.5,62.5,57.2,71,51,29,29.97,29.82,18,1,18,0.00
2013-9-8,93.9,81.5,70.5,70.5,66.3,62.1,86,62,37,29.91,29.77,21,2,21,0.00
2013-9-9,90.3,79.2,68.4,68.7,65.2,61.5,90,65,41,29.93,29.81,24,3,24,0.00
2013-9-10,86.2,78.4,71.4,68.7,67.0,65.5,85,69,52,30.00,29.89,25,3,26,0.00
2013-9-11,90.3,79.6,70.5,69.4,66.5,59.5,91,67,38,30.06,29.91,20,2,20,0.00
2013-9-12,93.2,80.5,68.4,69.1,63.1,58.1,83,59,34,30.03,29.86,16,1,16,0.00
2013-9-13,94.8,82.1,67.1,65.1,57.7,51.1,72,46,23,29.93,29.75,10,1,19,0.00
2013-9-14,95.4,82.6,69.3,62.8,59.2,54.7,65,46,32,29.89,29.76,15,1,16,0.00
2013-9-15,92.5,82.5,70.3,65.7,62.4,60.1,75,52,35,29.95,29.83,21,2,21,0.00
2013-9-16,92.7,83.4,75.6,68.7,64.7,58.8,71,55,34,30.00,29.88,18,2,21,0.00
2013-9-17,88.3,79.6,72.1,70.3,67.1,63.5,92,67,45,30.01,29.88,15,1,17,0.10
2013-9-18,91.8,82.0,72.7,69.6,65.2,60.8,84,59,38,29.94,29.78,19,2,23,0.00
2013-9-19,81.3,74.4,69.8,72.0,69.0,64.0,96,84,58,29.91,29.82,12,0,12,0.95
2013-9-20,71.4,69.3,65.8,70.2,67.0,63.1,96,92,85,29.95,29.81,17,2,17,0.86
2013-9-21,81.0,70.3,61.5,64.2,55.1,45.1,91,62,29,30.01,29.86,14,2,15,0.86
2013-9-22,84.0,69.9,55.9,59.0,52.4,41.5,92,59,24,29.90,29.75,11,0,12,0.00
2013-9-23,89.8,73.1,55.8,61.2,55.0,50.7,88,57,34,29.79,29.68,15,1,15,0.00
2013-9-24,91.6,76.2,62.2,63.1,58.1,52.3,89,58,27,29.91,29.78,12,1,12,0.00
2013-9-25,93.9,79.9,65.7,62.4,58.5,55.8,78,51,29,29.86,29.68,18,1,18,0.00
2013-9-26,91.6,79.0,65.7,64.6,59.8,56.5,79,54,32,29.79,29.70,17,2,18,0.00
2013-9-27,87.4,78.0,69.6,72.0,67.6,58.6,87,71,56,29.81,29.70,21,4,21,0.00
2013-9-28,78.1,69.6,62.8,72.3,64.4,57.2,94,84,74,30.06,29.74,28,4,26,1.02
2013-9-29,79.9,68.6,59.4,57.9,52.3,43.3,88,60,28,30.10,29.91,14,1,15,0.00
2013-9-30,90.5,70.8,54.0,65.3,57.0,50.5,96,67,30,29.93,29.73,13,1,14,0.00
2013-10-1,91.2,76.8,62.4,68.7,62.6,57.0,90,64,41,29.83,29.73,16,2,17,0.00
2013-10-2,90.0,78.6,68.4,70.5,66.4,64.0,94,69,45,29.86,29.73,19,3,19,0.00
2013-10-3,92.8,79.4,68.2,70.0,64.5,60.1,92,63,37,29.83,29.68,21,2,21,0.00
2013-10-4,92.1,79.8,70.0,69.3,66.0,61.5,90,65,41,29.80,29.69,19,2,19,0.00
2013-10-5,75.9,61.5,51.3,66.4,48.2,36.7,83,63,43,30.13,29.78,25,4,25,0.03
2013-10-6,77.4,60.6,45.1,46.9,39.8,26.4,91,55,16,30.22,30.09,18,2,19,0.03
2013-10-7,84.6,65.4,46.2,48.0,41.9,34.2,87,49,18,30.17,30.02,7,0,7,0.00
2013-10-8,86.7,68.4,50.9,48.9,43.7,39.9,77,45,20,30.04,29.88,13,1,13,0.00
2013-10-9,84.9,69.5,54.3,55.9,51.0,44.6,73,54,34,29.99,29.85,22,2,22,0.00
2013-10-10,86.4,73.3,62.1,63.0,58.4,54.0,85,62,36,29.94,29.74,25,4,25,0.00
2013-10-11,89.6,76.6,66.4,66.7,60.0,50.5,88,60,28,29.85,29.73,14,2,18,0.00
2013-10-12,89.1,76.5,64.9,68.0,61.0,49.6,85,61,36,29.99,29.81,11,0,11,0.00
2013-10-13,74.7,69.6,67.1,66.9,63.4,49.5,94,82,41,30.10,29.97,15,1,16,0.26
2013-10-14,80.1,71.8,67.1,70.2,67.8,65.1,96,88,71,30.07,29.83,14,1,14,0.27
2013-10-15,72.3,59.8,49.3,69.3,57.6,47.3,96,92,85,30.09,29.84,19,3,22,0.61
2013-10-16,63.0,55.7,49.3,49.3,47.5,45.5,93,75,56,30.15,30.05,10,1,14,0.05
2013-10-17,72.3,58.1,43.2,51.3,47.3,41.4,95,70,40,30.14,29.94,13,1,13,0.01
2013-10-18,74.7,60.6,46.8,62.6,53.1,39.6,86,77,63,30.16,29.83,33,3,33,0.00
2013-10-19,67.3,50.9,38.8,42.4,38.5,34.9,89,66,34,30.27,30.08,20,2,20,0.00
2013-10-20,78.4,60.1,43.3,57.4,49.2,39.6,88,69,47,30.09,29.80,19,1,19,0.00
2013-10-21,67.5,59.6,52.9,56.1,51.5,47.8,92,76,55,30.14,29.86,21,2,21,0.00
2013-10-22,74.5,58.6,43.3,48.2,43.2,37.0,92,62,27,30.22,30.08,11,1,11,0.00
2013-10-23,80.8,62.2,45.0,48.9,43.7,37.8,88,56,22,30.16,30.04,16,1,18,0.00
2013-10-24,80.1,62.0,45.1,50.9,45.7,41.7,89,60,29,30.21,30.09,12,1,13,0.00
2013-10-25,76.8,62.8,50.5,54.7,50.1,44.6,87,65,38,30.32,30.13,18,1,18,0.00
2013-10-26,78.6,68.2,59.7,63.3,59.0,51.6,93,74,52,30.15,29.99,20,2,20,0.00
2013-10-27,73.6,62.6,54.7,55.9,53.5,49.8,90,73,51,30.12,29.95,12,1,15,0.00
2013-10-28,82.8,70.9,58.1,66.7,62.0,55.0,92,76,51,29.99,29.85,22,3,22,0.00
2013-10-29,81.1,74.4,68.7,68.4,65.9,63.3,87,75,61,29.96,29.85,15,2,15,0.00
2013-10-30,74.8,71.4,70.0,69.1,67.0,64.9,92,86,79,29.91,29.69,20,3,20,0.08
2013-10-31,73.8,66.7,52.0,64.9,43.4,29.8,85,47,20,29.90,29.69,26,5,26,0.08
2013-11-1,75.0,58.9,43.5,42.3,38.0,30.7,80,50,20,30.17,29.81,26,4,26,0.00
2013-11-2,72.3,55.8,41.4,40.1,34.8,27.5,80,50,21,30.35,30.16,11,0,11,0.00
2013-11-3,70.0,54.9,44.1,46.8,39.0,35.1,72,57,31,30.19,29.91,22,2,22,0.00
2013-11-4,69.3,61.1,54.7,57.0,51.5,43.9,88,71,58,29.98,29.89,17,2,18,0.00
2013-11-5,72.9,65.6,60.4,64.2,61.1,56.7,94,86,70,29.95,29.83,14,1,15,0.03
2013-11-6,62.2,54.0,42.4,60.3,39.2,28.0,96,61,29,30.38,29.94,26,5,26,0.03
2013-11-7,65.1,49.6,34.9,39.4,33.0,28.4,87,57,27,30.54,30.38,11,0,11,0.03
2013-11-8,62.1,52.0,44.4,47.3,40.5,27.3,83,67,27,30.39,30.12,13,1,13,0.00
2013-11-9,75.7,58.0,43.9,52.9,46.7,39.2,88,68,44,30.15,30.01,13,1,13,0.00
2013-11-10,70.7,56.9,45.9,58.3,52.1,43.9,96,85,61,30.30,30.14,15,0,15,0.01
2013-11-11,75.4,62.5,54.1,57.7,54.8,52.2,95,78,50,30.26,30.11,12,0,13,0.00
2013-11-12,57.9,46.1,35.1,53.8,31.8,17.2,88,61,28,30.71,30.24,30,6,30,0.00
2013-11-13,55.8,39.8,25.9,27.5,19.2,14.2,79,48,20,30.71,30.37,8,0,8,0.00
2013-11-14,64.2,48.3,35.1,41.0,33.5,25.7,73,58,42,30.37,29.97,18,1,18,0.00
2013-11-15,78.6,57.2,36.9,50.7,44.0,33.6,90,65,35,30.00,29.78,15,1,15,0.00
2013-11-16,82.0,67.2,52.9,61.2,54.9,47.1,87,67,41,29.82,29.61,25,2,26,0.00
2013-11-17,82.9,69.0,54.7,60.4,50.2,40.8,91,57,23,29.94,29.68,30,3,30,0.00
2013-11-18,71.8,61.9,53.6,42.6,38.7,32.2,63,43,31,30.13,29.94,13,1,13,0.00
2013-11-19,75.9,64.6,57.7,51.4,45.7,40.3,74,51,40,30.09,29.87,15,3,21,0.00
2013-11-20,74.7,64.8,54.7,60.8,56.7,49.6,85,75,61,29.91,29.77,18,2,18,0.00
2013-11-21,80.1,66.2,39.7,65.7,58.0,33.1,92,76,51,30.21,29.85,32,4,32,0.02
2013-11-22,39.7,32.1,29.7,33.1,27.7,25.0,90,84,71,30.56,30.21,28,3,28,0.02
2013-11-23,34.5,32.4,30.6,31.6,28.6,27.3,92,86,76,30.63,30.54,13,0,15,0.01
2013-11-24,34.7,33.4,32.5,31.1,29.6,27.7,92,86,76,30.61,30.33,14,1,16,0.05
2013-11-25,39.0,35.8,32.4,34.2,32.3,30.0,93,87,81,30.35,30.16,12,1,12,0.11
2013-11-26,50.7,40.8,34.3,33.8,30.5,28.2,90,68,42,30.45,30.25,25,7,27,0.11
2013-11-27,49.5,38.9,28.4,29.8,25.7,18.5,85,61,37,30.54,30.36,12,0,12,0.00
2013-11-28,60.1,43.7,30.6,34.2,30.3,25.9,85,62,35,30.42,30.30,13,0,13,0.00
2013-11-29,62.6,46.2,31.3,41.4,35.3,27.0,85,68,44,30.48,30.30,14,0,14,0.00
2013-11-30,71.2,54.3,39.6,52.2,46.7,36.9,93,77,48,30.34,30.12,19,1,19,0.00
2013-12-1,63.9,55.7,45.1,55.8,51.4,43.0,96,86,74,30.17,29.94,16,2,17,0.00
2013-12-2,73.6,56.0,37.9,51.4,39.5,32.4,95,62,22,29.95,29.68,28,3,29,0.01
2013-12-3,82.8,60.8,40.8,41.9,34.7,24.6,75,44,12,29.69,29.55,21,3,21,0.00
2013-12-4,82.2,66.0,49.5,51.1,45.8,34.5,72,50,29,29.81,29.59,22,3,22,0.00
2013-12-5,49.3,31.0,23.5,34.5,20.0,10.9,89,65,43,30.26,29.81,27,8,27,0.01
2013-12-6,27.5,24.2,21.6,22.1,18.9,14.5,90,80,73,30.59,30.18,20,7,21,0.00
2013-12-7,23.5,20.9,17.8,16.3,13.0,9.0,76,71,65,30.63,30.32,16,3,16,0.00
2013-12-8,45.9,31.9,23.0,35.6,26.2,16.3,90,80,66,30.32,30.05,12,0,12,0.30
2013-12-9,31.5,29.4,27.3,28.9,26.8,23.7,93,90,84,30.52,30.10,16,3,16,0.30
2013-12-10,45.7,32.1,21.0,31.5,24.9,18.3,91,76,47,30.59,30.34,12,0,14,0.05
2013-12-11,46.6,36.6,29.8,32.2,28.0,25.0,84,72,48,30.65,30.32,16,2,17,0.05
2013-12-12,45.0,36.1,25.7,33.6,28.7,22.6,92,75,59,30.64,30.30,8,0,10,0.00
2013-12-13,63.3,50.1,40.6,45.7,40.6,33.6,80,70,51,30.31,29.81,22,2,22,0.00
2013-12-14,52.3,43.8,32.5,39.4,29.0,24.4,77,57,34,30.41,29.88,24,6,25,0.00
2013-12-15,62.2,42.3,25.3,34.3,27.2,21.4,88,60,25,30.43,30.25,16,1,16,0.00
2013-12-16,69.1,47.7,28.6,32.5,29.4,24.1,85,54,23,30.29,30.15,17,2,18,0.00
2013-12-17,71.2,50.0,32.9,38.7,33.0,27.5,82,56,26,30.33,30.22,8,0,10,0.00
2013-12-18,71.8,51.0,33.3,49.1,38.6,29.5,88,66,31,30.27,29.95,16,1,17,0.00
2013-12-19,71.4,59.5,49.5,54.0,51.0,45.1,90,75,53,29.95,29.70,17,2,17,0.00
2013-12-20,57.0,45.7,33.6,54.1,43.2,31.5,95,91,86,29.88,29.71,20,3,24,0.22
2013-12-21,59.9,48.9,37.0,49.3,39.5,33.6,97,74,39,29.82,29.60,33,6,33,0.77
2013-12-22,47.5,39.5,32.7,37.4,29.1,24.1,90,68,44,30.40,29.81,20,4,20,0.77
2013-12-23,56.5,39.8,27.0,36.5,30.4,24.1,91,71,46,30.54,30.40,12,0,12,0.00
2013-12-24,61.2,44.3,29.7,38.8,31.9,26.2,88,64,34,30.52,30.21,13,1,15,0.00
2013-12-25,48.9,40.8,32.7,35.8,32.1,27.0,82,72,57,30.47,30.21,22,3,22,0.00
2013-12-26,55.2,40.2,28.0,33.3,27.3,21.0,90,64,28,30.49,30.35,7,0,7,0.00
2013-12-27,55.8,41.4,28.9,39.7,31.6,24.3,90,70,39,30.48,30.34,9,0,9,0.00
2013-12-28,54.3,45.8,37.8,46.8,41.1,34.3,92,84,71,30.34,29.97,17,1,17,0.00
2013-12-29,49.8,38.6,27.9,45.7,33.9,20.5,92,83,67,30.38,29.94,23,5,28,0.00
2013-12-30,51.8,37.4,25.0,27.9,23.9,19.6,83,60,38,30.45,30.29,10,0,10,0.00
2013-12-31,61.3,42.2,26.8,34.3,29.3,23.0,87,64,32,30.47,30.18,18,1,19,0.00
2014-1-1,68.4,49.7,36.1,41.5,34.6,25.5,81,59,35,30.27,29.92,26,6,28,0.00
2014-1-2,49.1,36.5,27.1,26.1,23.0,19.8,75,59,37,30.54,30.27,22,4,24,0.00